Portada
METAR-TAF:

METAR-TAF

Aeroports :

Belgaum, Índia

latitud: 15-51-33N, longitud: 74-37-03E, altitud: 758 m

Observació

L'informe es va fer fa 2 hores i 40 minuts, a les 01:00 UTC
Vent 2 kt del Est
Temperatura 23°C
Humitat 89%
Pressió 1013 hPa
Visibilitat: 8000 m
Núvols disperses a una alçada de 1500 ft
Cel ennuvolat a una alçada de 8000 ft

METAR: VOBM 240100Z 09002KT 8000 SCT015 BKN080 23/21 Q1013

Hora: 09:10 (03:40 UTC)

Pronòstic

L'informe es va fer fa 4 hores i 40 minuts, a les 23:00 UTC
Pronòstic vàlid del 24 a les 00 UTC al 24 a les 09 UTC
Vent 10 kt del Oest
Visibilitat: 8000 m
Escasses núvols a una alçada de 1500 ft

TAF: VOBM 232300Z 2400/2409 27010KT 8000 FEW015

Observacions i pronòstics meteorològics de més de 4000 aeroports (METAR i TAF).

Les estacions disponibles són els punts grocs i vermells al mapa.

Posi el ratolí al punt desitjat per veure el nom de l'estació.

Feu clic per veure les observacions i els pronòstics meteorològics.

Per canviar el mapa: feu clic els botons verds amb una creu de color negre per apropar; al botó verd amb un guió per allunyar la imatge; o en les fletxes verdes per a mapes adjacents.


METAR-TAF: